Forside
METAR-TAF:

METAR-TAF

Lufthavne :

Manistee County-Blacker Airport

Manistee, Michigan, USA

Breddekreds: 44-16N, længdekreds: 086-15W, højde: 189 m

Aktuelle vejr

Denne rapport blev lavet for 21 minutter siden, kl. 11:56 UTC
Vind 3 kt fra østsydøst
Temperatur 13°C
Fugtighed 100%
Tryk 1020 hPa
Sigt: 16.1 km
skyfri

METAR: KMBL 121156Z AUTO 11003KT 10SM CLR 13/13 A3011 RMK AO2 SLP195 T01330133 10133 20100 52014 TSNO

Tid: 08:17 (12:17 UTC)

Vejrudsigter

Denne rapport blev lavet for 57 minutter siden, kl. 11:20 UTC
Foreløbig gælder fra 12 på 12 UTC til 13 på 12 UTC
Vind 3 kt fra øst
Sigt: 9.7 km
skyfri
dis
Fra 12 på 1500 UTC
Vind 8 kt fra vest
Sigt: 10 km
skyfri
Fra 13 på 0100 UTC
Vind kt fra nord
Sigt: 10 km
skyfri
Fra 13 på 0500 UTC
Vind 3 kt fra øst
Sigt: 3.2 km
skyfri
dis

TAF: KMBL 121120Z 1212/1312 08003KT 6SM BR SKC FM121500 28008KT P6SM SKC FM130100 00000KT P6SM SKC FM130500 09003KT 2SM BR SKC

Vejrobservationer og prognoser fra mere end 4000 lufthavne (METAR og TAF).

De gule og røde prikker repræsenterer de meteorologiske stationer.

Flyt musen over at se navnet på stationen.

Så klik over at se vejr observationer og prognoser.

At skifte det kort: Klik på de grønne knapper med et sort kors for at zoome ind; på den grønne knap med en bindestreg for at zoome ud; eller på de grønne pile for tilstødende kort.


METAR-TAF: